sensor_id;sensor_type;location;lat;lon;timestamp;P1;durP1;ratioP1;P2;durP2;ratioP2
4808;SDS011;2418;49.930;8.606;2022-09-03T00:07:56;1.40;;;1.30;;
4808;SDS011;2418;49.930;8.606;2022-09-03T00:10:40;1.90;;;0.82;;
4808;SDS011;2418;49.930;8.606;2022-09-03T00:13:08;2.20;;;1.27;;
4808;SDS011;2418;49.930;8.606;2022-09-03T00:15:39;1.00;;;1.00;;
4808;SDS011;2418;49.930;8.606;2022-09-03T00:18:06;2.80;;;0.90;;
4808;SDS011;2418;49.930;8.606;2022-09-03T00:23:04;1.10;;;1.10;;
4808;SDS011;2418;49.930;8.606;2022-09-03T00:25:44;3.10;;;1.15;;
4808;SDS011;2418;49.930;8.606;2022-09-03T00:28:13;1.40;;;0.90;;
4808;SDS011;2418;49.930;8.606;2022-09-03T00:30:42;1.90;;;1.30;;
4808;SDS011;2418;49.930;8.606;2022-09-03T00:33:11;1.40;;;1.30;;
4808;SDS011;2418;49.930;8.606;2022-09-03T00:35:45;3.80;;;0.90;;
4808;SDS011;2418;49.930;8.606;2022-09-03T00:38:13;0.90;;;0.90;;
4808;SDS011;2418;49.930;8.606;2022-09-03T00:40:55;2.60;;;1.05;;
4808;SDS011;2418;49.930;8.606;2022-09-03T00:48:56;4.20;;;0.98;;
4808;SDS011;2418;49.930;8.606;2022-09-03T00:59:24;1.30;;;1.20;;
4808;SDS011;2418;49.930;8.606;2022-09-03T01:04:29;2.42;;;1.00;;
4808;SDS011;2418;49.930;8.606;2022-09-03T01:12:17;9.48;;;1.23;;
4808;SDS011;2418;49.930;8.606;2022-09-03T01:14:53;3.08;;;1.10;;
4808;SDS011;2418;49.930;8.606;2022-09-03T01:20:40;1.45;;;1.35;;
4808;SDS011;2418;49.930;8.606;2022-09-03T01:23:17;1.57;;;1.10;;
4808;SDS011;2418;49.930;8.606;2022-09-03T01:31:17;2.70;;;1.17;;
4808;SDS011;2418;49.930;8.606;2022-09-03T01:33:50;2.50;;;1.02;;
4808;SDS011;2418;49.930;8.606;2022-09-03T01:36:28;1.20;;;1.08;;
4808;SDS011;2418;49.930;8.606;2022-09-03T01:38:58;2.10;;;1.00;;
4808;SDS011;2418;49.930;8.606;2022-09-03T01:47:04;0.95;;;0.95;;
4808;SDS011;2418;49.930;8.606;2022-09-03T01:49:37;2.60;;;1.20;;
4808;SDS011;2418;49.930;8.606;2022-09-03T01:52:09;2.50;;;1.08;;
4808;SDS011;2418;49.930;8.606;2022-09-03T01:54:54;2.80;;;1.40;;
4808;SDS011;2418;49.930;8.606;2022-09-03T01:59:51;1.38;;;1.38;;
4808;SDS011;2418;49.930;8.606;2022-09-03T02:02:23;1.20;;;1.10;;
4808;SDS011;2418;49.930;8.606;2022-09-03T02:05:07;1.10;;;1.10;;
4808;SDS011;2418;49.930;8.606;2022-09-03T02:07:35;1.02;;;1.00;;
4808;SDS011;2418;49.930;8.606;2022-09-03T02:10:04;1.60;;;1.05;;
4808;SDS011;2418;49.930;8.606;2022-09-03T02:12:30;4.30;;;1.20;;
4808;SDS011;2418;49.930;8.606;2022-09-03T02:15:01;2.30;;;1.20;;
4808;SDS011;2418;49.930;8.606;2022-09-03T02:17:29;1.90;;;1.20;;
4808;SDS011;2418;49.930;8.606;2022-09-03T02:19:56;3.70;;;1.20;;
4808;SDS011;2418;49.930;8.606;2022-09-03T02:22:22;1.70;;;1.10;;
4808;SDS011;2418;49.930;8.606;2022-09-03T02:24:49;1.20;;;1.20;;
4808;SDS011;2418;49.930;8.606;2022-09-03T02:27:14;2.10;;;1.30;;
4808;SDS011;2418;49.930;8.606;2022-09-03T02:29:40;2.60;;;1.20;;
4808;SDS011;2418;49.930;8.606;2022-09-03T02:32:06;1.10;;;1.10;;
4808;SDS011;2418;49.930;8.606;2022-09-03T02:34:32;1.30;;;1.20;;
4808;SDS011;2418;49.930;8.606;2022-09-03T02:36:58;3.10;;;1.10;;
4808;SDS011;2418;49.930;8.606;2022-09-03T02:39:24;1.52;;;1.10;;
4808;SDS011;2418;49.930;8.606;2022-09-03T02:41:53;1.70;;;1.00;;
4808;SDS011;2418;49.930;8.606;2022-09-03T02:44:29;1.00;;;1.00;;
4808;SDS011;2418;49.930;8.606;2022-09-03T02:47:03;1.45;;;1.10;;
4808;SDS011;2418;49.930;8.606;2022-09-03T02:49:30;1.20;;;1.10;;
4808;SDS011;2418;49.930;8.606;2022-09-03T02:52:01;1.05;;;1.05;;
4808;SDS011;2418;49.930;8.606;2022-09-03T02:54:30;2.70;;;1.17;;
4808;SDS011;2418;49.930;8.606;2022-09-03T02:56:57;2.20;;;1.98;;
4808;SDS011;2418;49.930;8.606;2022-09-03T02:59:24;1.20;;;1.10;;
4808;SDS011;2418;49.930;8.606;2022-09-03T03:01:52;1.10;;;1.10;;
4808;SDS011;2418;49.930;8.606;2022-09-03T03:04:18;3.28;;;1.30;;
4808;SDS011;2418;49.930;8.606;2022-09-03T03:06:44;1.40;;;1.30;;
4808;SDS011;2418;49.930;8.606;2022-09-03T03:09:10;2.10;;;0.88;;
4808;SDS011;2418;49.930;8.606;2022-09-03T03:11:35;1.40;;;1.27;;
4808;SDS011;2418;49.930;8.606;2022-09-03T03:14:02;3.00;;;1.30;;
4808;SDS011;2418;49.930;8.606;2022-09-03T03:16:28;2.20;;;1.27;;
4808;SDS011;2418;49.930;8.606;2022-09-03T03:18:57;2.50;;;1.50;;
4808;SDS011;2418;49.930;8.606;2022-09-03T03:21:24;1.47;;;1.37;;
4808;SDS011;2418;49.930;8.606;2022-09-03T03:23:49;1.10;;;1.10;;
4808;SDS011;2418;49.930;8.606;2022-09-03T03:26:17;1.60;;;1.30;;
4808;SDS011;2418;49.930;8.606;2022-09-03T03:28:43;1.90;;;1.00;;
4808;SDS011;2418;49.930;8.606;2022-09-03T03:31:11;1.30;;;1.15;;
4808;SDS011;2418;49.930;8.606;2022-09-03T03:33:38;1.20;;;1.20;;
4808;SDS011;2418;49.930;8.606;2022-09-03T03:36:05;1.30;;;1.20;;
4808;SDS011;2418;49.930;8.606;2022-09-03T03:38:31;1.17;;;1.13;;
4808;SDS011;2418;49.930;8.606;2022-09-03T03:40:57;1.15;;;1.15;;
4808;SDS011;2418;49.930;8.606;2022-09-03T03:43:23;1.30;;;1.10;;
4808;SDS011;2418;49.930;8.606;2022-09-03T03:45:58;1.50;;;1.10;;
4808;SDS011;2418;49.930;8.606;2022-09-03T03:48:24;2.78;;;1.20;;
4808;SDS011;2418;49.930;8.606;2022-09-03T03:50:50;2.08;;;0.90;;
4808;SDS011;2418;49.930;8.606;2022-09-03T03:53:16;2.95;;;1.40;;
4808;SDS011;2418;49.930;8.606;2022-09-03T03:55:42;1.20;;;1.10;;
4808;SDS011;2418;49.930;8.606;2022-09-03T03:58:08;1.75;;;1.10;;
4808;SDS011;2418;49.930;8.606;2022-09-03T04:00:34;4.30;;;1.50;;
4808;SDS011;2418;49.930;8.606;2022-09-03T04:03:01;1.30;;;1.30;;
4808;SDS011;2418;49.930;8.606;2022-09-03T04:05:28;4.33;;;1.13;;
4808;SDS011;2418;49.930;8.606;2022-09-03T04:07:54;1.50;;;1.40;;
4808;SDS011;2418;49.930;8.606;2022-09-03T04:10:20;1.98;;;1.25;;
4808;SDS011;2418;49.930;8.606;2022-09-03T04:12:46;1.60;;;1.25;;
4808;SDS011;2418;49.930;8.606;2022-09-03T04:15:12;2.10;;;1.00;;
4808;SDS011;2418;49.930;8.606;2022-09-03T04:17:37;2.40;;;1.30;;
4808;SDS011;2418;49.930;8.606;2022-09-03T04:20:04;2.30;;;1.50;;
4808;SDS011;2418;49.930;8.606;2022-09-03T04:22:30;2.40;;;1.30;;
4808;SDS011;2418;49.930;8.606;2022-09-03T04:24:55;2.87;;;1.20;;
4808;SDS011;2418;49.930;8.606;2022-09-03T04:27:21;1.30;;;1.30;;
4808;SDS011;2418;49.930;8.606;2022-09-03T04:29:46;1.20;;;1.20;;
4808;SDS011;2418;49.930;8.606;2022-09-03T04:32:12;1.80;;;1.40;;
4808;SDS011;2418;49.930;8.606;2022-09-03T04:34:57;1.50;;;1.20;;
4808;SDS011;2418;49.930;8.606;2022-09-03T04:37:23;2.90;;;1.30;;
4808;SDS011;2418;49.930;8.606;2022-09-03T04:39:49;1.90;;;1.50;;
4808;SDS011;2418;49.930;8.606;2022-09-03T04:42:15;1.07;;;1.07;;
4808;SDS011;2418;49.930;8.606;2022-09-03T04:44:41;1.00;;;1.00;;
4808;SDS011;2418;49.930;8.606;2022-09-03T04:47:07;4.50;;;1.30;;
4808;SDS011;2418;49.930;8.606;2022-09-03T04:49:33;1.77;;;1.67;;
4808;SDS011;2418;49.930;8.606;2022-09-03T04:51:58;4.10;;;1.37;;
4808;SDS011;2418;49.930;8.606;2022-09-03T04:54:25;1.90;;;1.30;;
4808;SDS011;2418;49.930;8.606;2022-09-03T04:56:51;2.90;;;1.20;;
4808;SDS011;2418;49.930;8.606;2022-09-03T04:59:16;3.50;;;1.20;;
4808;SDS011;2418;49.930;8.606;2022-09-03T05:01:42;1.48;;;1.30;;
4808;SDS011;2418;49.930;8.606;2022-09-03T05:04:08;1.30;;;1.30;;
4808;SDS011;2418;49.930;8.606;2022-09-03T05:06:35;1.20;;;1.20;;
4808;SDS011;2418;49.930;8.606;2022-09-03T05:09:01;4.30;;;1.50;;
4808;SDS011;2418;49.930;8.606;2022-09-03T05:11:27;1.30;;;1.30;;
4808;SDS011;2418;49.930;8.606;2022-09-03T05:13:55;1.60;;;1.50;;
4808;SDS011;2418;49.930;8.606;2022-09-03T05:16:21;1.40;;;1.30;;
4808;SDS011;2418;49.930;8.606;2022-09-03T05:18:50;2.00;;;1.20;;
4808;SDS011;2418;49.930;8.606;2022-09-03T05:21:17;1.42;;;1.20;;
4808;SDS011;2418;49.930;8.606;2022-09-03T05:23:44;2.50;;;1.20;;
4808;SDS011;2418;49.930;8.606;2022-09-03T05:26:14;1.80;;;1.25;;
4808;SDS011;2418;49.930;8.606;2022-09-03T05:28:42;1.40;;;1.30;;
4808;SDS011;2418;49.930;8.606;2022-09-03T05:31:09;1.20;;;1.10;;
4808;SDS011;2418;49.930;8.606;2022-09-03T05:33:35;1.73;;;1.20;;
4808;SDS011;2418;49.930;8.606;2022-09-03T05:36:03;1.80;;;1.70;;
4808;SDS011;2418;49.930;8.606;2022-09-03T05:38:29;2.30;;;1.20;;
4808;SDS011;2418;49.930;8.606;2022-09-03T05:41:02;1.80;;;1.20;;
4808;SDS011;2418;49.930;8.606;2022-09-03T05:43:28;1.85;;;1.75;;
4808;SDS011;2418;49.930;8.606;2022-09-03T05:46:08;1.50;;;1.50;;
4808;SDS011;2418;49.930;8.606;2022-09-03T05:48:35;3.63;;;1.40;;
4808;SDS011;2418;49.930;8.606;2022-09-03T05:51:02;1.33;;;1.30;;
4808;SDS011;2418;49.930;8.606;2022-09-03T05:53:32;1.10;;;1.10;;
4808;SDS011;2418;49.930;8.606;2022-09-03T05:56:08;1.25;;;1.25;;
4808;SDS011;2418;49.930;8.606;2022-09-03T05:58:41;2.10;;;1.20;;
4808;SDS011;2418;49.930;8.606;2022-09-03T06:01:12;1.20;;;1.20;;
4808;SDS011;2418;49.930;8.606;2022-09-03T06:03:40;3.75;;;1.20;;
4808;SDS011;2418;49.930;8.606;2022-09-03T06:06:07;4.10;;;2.00;;
4808;SDS011;2418;49.930;8.606;2022-09-03T06:08:33;1.60;;;1.55;;
4808;SDS011;2418;49.930;8.606;2022-09-03T06:11:02;1.60;;;1.50;;
4808;SDS011;2418;49.930;8.606;2022-09-03T06:13:29;1.20;;;1.20;;
4808;SDS011;2418;49.930;8.606;2022-09-03T06:15:59;1.40;;;1.40;;
4808;SDS011;2418;49.930;8.606;2022-09-03T06:18:25;3.30;;;1.30;;
4808;SDS011;2418;49.930;8.606;2022-09-03T06:20:58;2.17;;;1.50;;
4808;SDS011;2418;49.930;8.606;2022-09-03T06:23:25;4.20;;;1.55;;
4808;SDS011;2418;49.930;8.606;2022-09-03T06:28:26;1.20;;;1.20;;
4808;SDS011;2418;49.930;8.606;2022-09-03T06:30:53;3.40;;;1.40;;
4808;SDS011;2418;49.930;8.606;2022-09-03T06:33:22;1.90;;;1.40;;
4808;SDS011;2418;49.930;8.606;2022-09-03T06:35:51;1.30;;;1.30;;
4808;SDS011;2418;49.930;8.606;2022-09-03T06:38:17;2.00;;;1.50;;
4808;SDS011;2418;49.930;8.606;2022-09-03T06:40:50;1.67;;;1.58;;
4808;SDS011;2418;49.930;8.606;2022-09-03T06:43:16;1.70;;;1.50;;
4808;SDS011;2418;49.930;8.606;2022-09-03T06:45:42;1.83;;;1.73;;
4808;SDS011;2418;49.930;8.606;2022-09-03T06:48:08;1.83;;;1.70;;
4808;SDS011;2418;49.930;8.606;2022-09-03T06:50:34;1.50;;;1.40;;
4808;SDS011;2418;49.930;8.606;2022-09-03T06:53:00;3.03;;;1.90;;
4808;SDS011;2418;49.930;8.606;2022-09-03T06:55:26;8.98;;;2.25;;
4808;SDS011;2418;49.930;8.606;2022-09-03T06:57:54;2.28;;;2.10;;
4808;SDS011;2418;49.930;8.606;2022-09-03T07:00:21;5.00;;;2.10;;
4808;SDS011;2418;49.930;8.606;2022-09-03T07:02:47;4.35;;;2.47;;
4808;SDS011;2418;49.930;8.606;2022-09-03T07:05:13;2.95;;;1.70;;
4808;SDS011;2418;49.930;8.606;2022-09-03T07:07:39;2.60;;;1.90;;
4808;SDS011;2418;49.930;8.606;2022-09-03T07:10:05;6.88;;;1.90;;
4808;SDS011;2418;49.930;8.606;2022-09-03T07:12:37;1.60;;;1.50;;
4808;SDS011;2418;49.930;8.606;2022-09-03T07:15:03;4.05;;;1.80;;
4808;SDS011;2418;49.930;8.606;2022-09-03T07:17:30;1.50;;;1.50;;
4808;SDS011;2418;49.930;8.606;2022-09-03T07:19:56;2.30;;;1.75;;
4808;SDS011;2418;49.930;8.606;2022-09-03T07:22:22;3.28;;;1.60;;
4808;SDS011;2418;49.930;8.606;2022-09-03T07:24:47;1.55;;;1.55;;
4808;SDS011;2418;49.930;8.606;2022-09-03T07:27:16;3.03;;;1.65;;
4808;SDS011;2418;49.930;8.606;2022-09-03T07:29:42;3.47;;;2.00;;
4808;SDS011;2418;49.930;8.606;2022-09-03T07:32:08;1.77;;;1.67;;
4808;SDS011;2418;49.930;8.606;2022-09-03T07:34:34;1.67;;;1.67;;
4808;SDS011;2418;49.930;8.606;2022-09-03T07:37:00;1.70;;;1.70;;
4808;SDS011;2418;49.930;8.606;2022-09-03T07:39:27;2.97;;;2.60;;
4808;SDS011;2418;49.930;8.606;2022-09-03T07:41:53;2.00;;;1.80;;
4808;SDS011;2418;49.930;8.606;2022-09-03T07:44:19;2.40;;;2.30;;
4808;SDS011;2418;49.930;8.606;2022-09-03T07:46:45;2.40;;;2.30;;
4808;SDS011;2418;49.930;8.606;2022-09-03T07:49:14;2.30;;;2.20;;
4808;SDS011;2418;49.930;8.606;2022-09-03T07:51:40;3.00;;;2.20;;
4808;SDS011;2418;49.930;8.606;2022-09-03T07:54:07;3.28;;;2.38;;
4808;SDS011;2418;49.930;8.606;2022-09-03T07:56:34;3.17;;;3.00;;
4808;SDS011;2418;49.930;8.606;2022-09-03T07:59:00;6.00;;;2.90;;
4808;SDS011;2418;49.930;8.606;2022-09-03T08:01:28;3.80;;;3.30;;
4808;SDS011;2418;49.930;8.606;2022-09-03T08:03:55;4.10;;;3.60;;
4808;SDS011;2418;49.930;8.606;2022-09-03T08:06:23;6.70;;;3.90;;
4808;SDS011;2418;49.930;8.606;2022-09-03T08:08:53;4.72;;;3.80;;
4808;SDS011;2418;49.930;8.606;2022-09-03T08:11:21;4.80;;;3.90;;
4808;SDS011;2418;49.930;8.606;2022-09-03T08:13:47;5.97;;;4.27;;
4808;SDS011;2418;49.930;8.606;2022-09-03T08:16:18;4.37;;;3.97;;
4808;SDS011;2418;49.930;8.606;2022-09-03T08:18:45;5.93;;;3.90;;
4808;SDS011;2418;49.930;8.606;2022-09-03T08:21:15;4.05;;;3.85;;
4808;SDS011;2418;49.930;8.606;2022-09-03T08:23:43;6.30;;;4.00;;
4808;SDS011;2418;49.930;8.606;2022-09-03T08:26:09;9.18;;;4.50;;
4808;SDS011;2418;49.930;8.606;2022-09-03T08:28:36;6.28;;;4.47;;
4808;SDS011;2418;49.930;8.606;2022-09-03T08:33:31;5.30;;;4.30;;
4808;SDS011;2418;49.930;8.606;2022-09-03T08:36:07;4.78;;;4.20;;
4808;SDS011;2418;49.930;8.606;2022-09-03T08:38:34;4.60;;;4.20;;
4808;SDS011;2418;49.930;8.606;2022-09-03T08:41:11;4.32;;;3.95;;
4808;SDS011;2418;49.930;8.606;2022-09-03T08:46:32;4.35;;;4.05;;
4808;SDS011;2418;49.930;8.606;2022-09-03T08:49:02;3.30;;;3.10;;
4808;SDS011;2418;49.930;8.606;2022-09-03T08:51:30;3.50;;;3.10;;
4808;SDS011;2418;49.930;8.606;2022-09-03T08:53:59;3.50;;;3.20;;
4808;SDS011;2418;49.930;8.606;2022-09-03T08:56:27;6.20;;;3.00;;
4808;SDS011;2418;49.930;8.606;2022-09-03T08:58:54;3.40;;;3.10;;
4808;SDS011;2418;49.930;8.606;2022-09-03T09:04:08;3.15;;;3.00;;
4808;SDS011;2418;49.930;8.606;2022-09-03T09:09:27;3.70;;;3.45;;
4808;SDS011;2418;49.930;8.606;2022-09-03T09:21:56;3.20;;;2.80;;
4808;SDS011;2418;49.930;8.606;2022-09-03T09:24:25;3.03;;;2.83;;
4808;SDS011;2418;49.930;8.606;2022-09-03T09:27:01;2.92;;;2.83;;
4808;SDS011;2418;49.930;8.606;2022-09-03T09:29:31;2.95;;;2.85;;
4808;SDS011;2418;49.930;8.606;2022-09-03T09:31:58;2.70;;;2.60;;
4808;SDS011;2418;49.930;8.606;2022-09-03T09:34:24;3.17;;;2.88;;
4808;SDS011;2418;49.930;8.606;2022-09-03T09:36:52;3.70;;;3.10;;
4808;SDS011;2418;49.930;8.606;2022-09-03T09:39:18;3.63;;;3.33;;
4808;SDS011;2418;49.930;8.606;2022-09-03T09:44:33;4.38;;;2.80;;
4808;SDS011;2418;49.930;8.606;2022-09-03T09:47:03;3.53;;;3.33;;
4808;SDS011;2418;49.930;8.606;2022-09-03T09:49:34;3.42;;;3.20;;
4808;SDS011;2418;49.930;8.606;2022-09-03T09:52:06;4.50;;;3.00;;
4808;SDS011;2418;49.930;8.606;2022-09-03T09:54:35;3.17;;;3.08;;
4808;SDS011;2418;49.930;8.606;2022-09-03T09:57:06;3.20;;;3.00;;
4808;SDS011;2418;49.930;8.606;2022-09-03T09:59:38;3.40;;;3.10;;
4808;SDS011;2418;49.930;8.606;2022-09-03T10:02:09;4.07;;;2.80;;
4808;SDS011;2418;49.930;8.606;2022-09-03T10:04:36;3.13;;;3.03;;
4808;SDS011;2418;49.930;8.606;2022-09-03T10:07:04;2.50;;;2.40;;
4808;SDS011;2418;49.930;8.606;2022-09-03T10:09:32;3.20;;;2.75;;
4808;SDS011;2418;49.930;8.606;2022-09-03T10:22:45;2.67;;;2.42;;
4808;SDS011;2418;49.930;8.606;2022-09-03T10:25:13;3.40;;;3.20;;
4808;SDS011;2418;49.930;8.606;2022-09-03T10:27:40;3.30;;;3.20;;
4808;SDS011;2418;49.930;8.606;2022-09-03T10:30:09;2.90;;;2.70;;
4808;SDS011;2418;49.930;8.606;2022-09-03T10:35:28;2.78;;;2.47;;
4808;SDS011;2418;49.930;8.606;2022-09-03T10:40:37;3.47;;;3.28;;
4808;SDS011;2418;49.930;8.606;2022-09-03T10:45:43;2.60;;;2.60;;
4808;SDS011;2418;49.930;8.606;2022-09-03T10:48:19;3.30;;;2.80;;
4808;SDS011;2418;49.930;8.606;2022-09-03T10:51:23;4.10;;;3.28;;
4808;SDS011;2418;49.930;8.606;2022-09-03T10:56:16;2.40;;;2.30;;
4808;SDS011;2418;49.930;8.606;2022-09-03T11:04:11;2.60;;;2.40;;
4808;SDS011;2418;49.930;8.606;2022-09-03T11:06:42;2.63;;;2.43;;
4808;SDS011;2418;49.930;8.606;2022-09-03T11:09:20;2.75;;;2.70;;
4808;SDS011;2418;49.930;8.606;2022-09-03T11:11:55;4.00;;;2.40;;
4808;SDS011;2418;49.930;8.606;2022-09-03T11:14:27;3.20;;;2.90;;
4808;SDS011;2418;49.930;8.606;2022-09-03T11:16:58;2.80;;;2.70;;
4808;SDS011;2418;49.930;8.606;2022-09-03T11:19:32;4.20;;;2.60;;
4808;SDS011;2418;49.930;8.606;2022-09-03T11:21:59;2.90;;;2.80;;
4808;SDS011;2418;49.930;8.606;2022-09-03T11:24:26;2.90;;;2.80;;
4808;SDS011;2418;49.930;8.606;2022-09-03T11:29:39;2.70;;;2.60;;
4808;SDS011;2418;49.930;8.606;2022-09-03T11:32:07;3.17;;;2.87;;
4808;SDS011;2418;49.930;8.606;2022-09-03T11:34:45;3.88;;;3.08;;
4808;SDS011;2418;49.930;8.606;2022-09-03T11:39:53;3.20;;;3.00;;
4808;SDS011;2418;49.930;8.606;2022-09-03T11:42:26;3.50;;;3.40;;
4808;SDS011;2418;49.930;8.606;2022-09-03T11:44:52;3.23;;;3.13;;
4808;SDS011;2418;49.930;8.606;2022-09-03T11:47:36;4.03;;;3.75;;
4808;SDS011;2418;49.930;8.606;2022-09-03T11:50:07;3.40;;;3.20;;
4808;SDS011;2418;49.930;8.606;2022-09-03T11:52:33;2.90;;;2.80;;
4808;SDS011;2418;49.930;8.606;2022-09-03T11:55:05;3.30;;;3.10;;
4808;SDS011;2418;49.930;8.606;2022-09-03T11:57:32;3.42;;;3.33;;
4808;SDS011;2418;49.930;8.606;2022-09-03T12:02:34;3.60;;;3.40;;
4808;SDS011;2418;49.930;8.606;2022-09-03T12:10:30;2.80;;;2.60;;
4808;SDS011;2418;49.930;8.606;2022-09-03T12:12:58;2.40;;;2.30;;
4808;SDS011;2418;49.930;8.606;2022-09-03T12:15:45;2.78;;;2.58;;
4808;SDS011;2418;49.930;8.606;2022-09-03T12:18:25;2.80;;;2.60;;
4808;SDS011;2418;49.930;8.606;2022-09-03T12:23:26;2.55;;;2.45;;
4808;SDS011;2418;49.930;8.606;2022-09-03T12:25:53;2.53;;;2.43;;
4808;SDS011;2418;49.930;8.606;2022-09-03T12:28:21;2.40;;;2.30;;
4808;SDS011;2418;49.930;8.606;2022-09-03T12:30:50;2.22;;;2.20;;
4808;SDS011;2418;49.930;8.606;2022-09-03T12:33:18;3.20;;;2.90;;
4808;SDS011;2418;49.930;8.606;2022-09-03T12:35:54;3.10;;;2.90;;
4808;SDS011;2418;49.930;8.606;2022-09-03T12:38:24;3.92;;;2.60;;
4808;SDS011;2418;49.930;8.606;2022-09-03T12:40:50;2.70;;;2.70;;
4808;SDS011;2418;49.930;8.606;2022-09-03T12:43:17;2.50;;;2.30;;
4808;SDS011;2418;49.930;8.606;2022-09-03T12:45:45;2.90;;;2.80;;
4808;SDS011;2418;49.930;8.606;2022-09-03T12:48:11;2.95;;;2.75;;
4808;SDS011;2418;49.930;8.606;2022-09-03T12:50:40;2.53;;;2.45;;
4808;SDS011;2418;49.930;8.606;2022-09-03T12:53:06;2.40;;;2.30;;
4808;SDS011;2418;49.930;8.606;2022-09-03T12:55:38;2.80;;;2.60;;
4808;SDS011;2418;49.930;8.606;2022-09-03T13:00:51;3.30;;;2.40;;
4808;SDS011;2418;49.930;8.606;2022-09-03T13:03:23;1.90;;;1.90;;
4808;SDS011;2418;49.930;8.606;2022-09-03T13:05:53;2.40;;;2.30;;
4808;SDS011;2418;49.930;8.606;2022-09-03T13:08:21;2.42;;;2.22;;
4808;SDS011;2418;49.930;8.606;2022-09-03T13:10:55;2.50;;;2.50;;
4808;SDS011;2418;49.930;8.606;2022-09-03T13:13:24;2.50;;;2.30;;
4808;SDS011;2418;49.930;8.606;2022-09-03T13:16:34;2.15;;;1.95;;
4808;SDS011;2418;49.930;8.606;2022-09-03T13:32:06;1.50;;;1.50;;
4808;SDS011;2418;49.930;8.606;2022-09-03T13:34:36;2.10;;;2.10;;
4808;SDS011;2418;49.930;8.606;2022-09-03T13:37:10;2.20;;;2.00;;
4808;SDS011;2418;49.930;8.606;2022-09-03T13:47:44;2.15;;;2.05;;
4808;SDS011;2418;49.930;8.606;2022-09-03T13:50:41;1.80;;;1.70;;
4808;SDS011;2418;49.930;8.606;2022-09-03T13:53:19;2.30;;;2.20;;
4808;SDS011;2418;49.930;8.606;2022-09-03T13:56:05;2.30;;;2.10;;
4808;SDS011;2418;49.930;8.606;2022-09-03T13:58:40;2.47;;;2.38;;
4808;SDS011;2418;49.930;8.606;2022-09-03T14:01:14;2.10;;;2.10;;
4808;SDS011;2418;49.930;8.606;2022-09-03T14:03:45;2.10;;;2.10;;
4808;SDS011;2418;49.930;8.606;2022-09-03T14:06:23;2.10;;;2.10;;
4808;SDS011;2418;49.930;8.606;2022-09-03T14:13:51;1.80;;;1.80;;
4808;SDS011;2418;49.930;8.606;2022-09-03T14:19:21;2.40;;;1.50;;
4808;SDS011;2418;49.930;8.606;2022-09-03T14:21:50;2.10;;;1.50;;
4808;SDS011;2418;49.930;8.606;2022-09-03T14:27:00;1.67;;;1.65;;
4808;SDS011;2418;49.930;8.606;2022-09-03T14:29:28;3.38;;;1.50;;
4808;SDS011;2418;49.930;8.606;2022-09-03T14:42:20;2.30;;;1.45;;
4808;SDS011;2418;49.930;8.606;2022-09-03T14:47:35;1.50;;;1.50;;
4808;SDS011;2418;49.930;8.606;2022-09-03T14:50:10;1.70;;;1.70;;
4808;SDS011;2418;49.930;8.606;2022-09-03T14:55:11;2.00;;;1.63;;
4808;SDS011;2418;49.930;8.606;2022-09-03T14:57:46;1.95;;;1.85;;
4808;SDS011;2418;49.930;8.606;2022-09-03T15:02:58;1.70;;;1.70;;
4808;SDS011;2418;49.930;8.606;2022-09-03T15:07:53;2.00;;;2.00;;
4808;SDS011;2418;49.930;8.606;2022-09-03T15:37:16;2.08;;;2.08;;
4808;SDS011;2418;49.930;8.606;2022-09-03T15:39:43;1.77;;;1.77;;
4808;SDS011;2418;49.930;8.606;2022-09-03T15:47:50;2.60;;;2.10;;
4808;SDS011;2418;49.930;8.606;2022-09-03T15:55:38;2.10;;;2.10;;
4808;SDS011;2418;49.930;8.606;2022-09-03T16:00:44;2.42;;;2.40;;
4808;SDS011;2418;49.930;8.606;2022-09-03T16:03:14;2.03;;;2.03;;
4808;SDS011;2418;49.930;8.606;2022-09-03T16:06:04;2.50;;;2.40;;
4808;SDS011;2418;49.930;8.606;2022-09-03T16:11:38;2.20;;;2.20;;
4808;SDS011;2418;49.930;8.606;2022-09-03T16:14:07;2.20;;;2.10;;
4808;SDS011;2418;49.930;8.606;2022-09-03T16:19:14;2.28;;;2.08;;
4808;SDS011;2418;49.930;8.606;2022-09-03T16:21:44;2.60;;;2.20;;
4808;SDS011;2418;49.930;8.606;2022-09-03T16:24:15;2.40;;;2.30;;
4808;SDS011;2418;49.930;8.606;2022-09-03T16:29:15;3.70;;;2.10;;
4808;SDS011;2418;49.930;8.606;2022-09-03T16:32:01;2.20;;;2.10;;
4808;SDS011;2418;49.930;8.606;2022-09-03T16:37:00;2.50;;;2.30;;
4808;SDS011;2418;49.930;8.606;2022-09-03T16:39:49;3.10;;;3.00;;
4808;SDS011;2418;49.930;8.606;2022-09-03T16:42:20;7.78;;;2.70;;
4808;SDS011;2418;49.930;8.606;2022-09-03T16:44:58;4.10;;;2.30;;
4808;SDS011;2418;49.930;8.606;2022-09-03T16:55:22;1.80;;;0.55;;
4808;SDS011;2418;49.930;8.606;2022-09-03T16:57:53;2.63;;;1.00;;
4808;SDS011;2418;49.930;8.606;2022-09-03T17:00:22;2.08;;;0.70;;
4808;SDS011;2418;49.930;8.606;2022-09-03T17:07:59;0.60;;;0.60;;
4808;SDS011;2418;49.930;8.606;2022-09-03T17:13:49;0.60;;;0.60;;
4808;SDS011;2418;49.930;8.606;2022-09-03T17:18:49;0.70;;;0.55;;
4808;SDS011;2418;49.930;8.606;2022-09-03T17:21:38;0.70;;;0.70;;
4808;SDS011;2418;49.930;8.606;2022-09-03T17:32:22;1.10;;;1.10;;
4808;SDS011;2418;49.930;8.606;2022-09-03T17:37:46;2.30;;;0.70;;
4808;SDS011;2418;49.930;8.606;2022-09-03T17:42:48;0.50;;;0.50;;
4808;SDS011;2418;49.930;8.606;2022-09-03T17:48:04;0.55;;;0.50;;
4808;SDS011;2418;49.930;8.606;2022-09-03T17:50:47;0.80;;;0.60;;
4808;SDS011;2418;49.930;8.606;2022-09-03T17:53:21;0.60;;;0.60;;
4808;SDS011;2418;49.930;8.606;2022-09-03T18:00:56;0.60;;;0.60;;
4808;SDS011;2418;49.930;8.606;2022-09-03T18:03:29;1.50;;;0.50;;
4808;SDS011;2418;49.930;8.606;2022-09-03T18:06:00;0.40;;;0.40;;
4808;SDS011;2418;49.930;8.606;2022-09-03T18:08:40;0.65;;;0.65;;
4808;SDS011;2418;49.930;8.606;2022-09-03T18:16:31;0.50;;;0.50;;
4808;SDS011;2418;49.930;8.606;2022-09-03T18:21:58;0.70;;;0.70;;
4808;SDS011;2418;49.930;8.606;2022-09-03T18:24:51;1.40;;;0.60;;
4808;SDS011;2418;49.930;8.606;2022-09-03T18:27:43;0.60;;;0.60;;
4808;SDS011;2418;49.930;8.606;2022-09-03T18:30:30;0.65;;;0.65;;
4808;SDS011;2418;49.930;8.606;2022-09-03T18:33:16;0.70;;;0.60;;
4808;SDS011;2418;49.930;8.606;2022-09-03T18:36:03;2.55;;;0.68;;
4808;SDS011;2418;49.930;8.606;2022-09-03T18:38:48;0.40;;;0.40;;
4808;SDS011;2418;49.930;8.606;2022-09-03T18:50:28;0.70;;;0.70;;
4808;SDS011;2418;49.930;8.606;2022-09-03T18:56:18;0.88;;;0.60;;
4808;SDS011;2418;49.930;8.606;2022-09-03T19:11:34;0.70;;;0.70;;
4808;SDS011;2418;49.930;8.606;2022-09-03T19:14:28;1.90;;;0.90;;
4808;SDS011;2418;49.930;8.606;2022-09-03T19:20:27;0.90;;;0.90;;
4808;SDS011;2418;49.930;8.606;2022-09-03T19:23:10;1.25;;;1.25;;
4808;SDS011;2418;49.930;8.606;2022-09-03T19:25:55;1.63;;;1.52;;
4808;SDS011;2418;49.930;8.606;2022-09-03T19:28:48;1.17;;;1.08;;
4808;SDS011;2418;49.930;8.606;2022-09-03T19:31:44;0.85;;;0.85;;
4808;SDS011;2418;49.930;8.606;2022-09-03T19:37:41;3.63;;;0.90;;
4808;SDS011;2418;49.930;8.606;2022-09-03T19:46:38;0.82;;;0.82;;
4808;SDS011;2418;49.930;8.606;2022-09-03T19:52:22;3.13;;;0.85;;
4808;SDS011;2418;49.930;8.606;2022-09-03T19:55:13;1.00;;;0.70;;
4808;SDS011;2418;49.930;8.606;2022-09-03T19:57:59;0.85;;;0.85;;
4808;SDS011;2418;49.930;8.606;2022-09-03T20:00:44;2.07;;;1.97;;
4808;SDS011;2418;49.930;8.606;2022-09-03T20:03:29;3.97;;;3.70;;
4808;SDS011;2418;49.930;8.606;2022-09-03T20:06:15;6.78;;;6.15;;
4808;SDS011;2418;49.930;8.606;2022-09-03T20:09:03;7.13;;;3.80;;
4808;SDS011;2418;49.930;8.606;2022-09-03T20:11:53;2.00;;;1.90;;
4808;SDS011;2418;49.930;8.606;2022-09-03T20:14:21;2.80;;;2.60;;
4808;SDS011;2418;49.930;8.606;2022-09-03T20:21:48;4.40;;;1.80;;
4808;SDS011;2418;49.930;8.606;2022-09-03T20:29:29;1.20;;;1.20;;
4808;SDS011;2418;49.930;8.606;2022-09-03T20:34:38;1.02;;;1.00;;
4808;SDS011;2418;49.930;8.606;2022-09-03T20:40:01;1.80;;;1.00;;
4808;SDS011;2418;49.930;8.606;2022-09-03T20:45:19;3.00;;;1.00;;
4808;SDS011;2418;49.930;8.606;2022-09-03T20:47:49;1.13;;;1.10;;
4808;SDS011;2418;49.930;8.606;2022-09-03T20:50:30;1.40;;;0.90;;
4808;SDS011;2418;49.930;8.606;2022-09-03T20:55:50;1.50;;;1.38;;
4808;SDS011;2418;49.930;8.606;2022-09-03T20:58:28;2.00;;;1.10;;
4808;SDS011;2418;49.930;8.606;2022-09-03T21:01:07;5.00;;;1.20;;
4808;SDS011;2418;49.930;8.606;2022-09-03T21:03:39;1.33;;;1.23;;
4808;SDS011;2418;49.930;8.606;2022-09-03T21:13:56;1.42;;;1.33;;
4808;SDS011;2418;49.930;8.606;2022-09-03T21:24:06;2.90;;;2.10;;
4808;SDS011;2418;49.930;8.606;2022-09-03T21:26:34;1.83;;;1.73;;